Time;durP1;ratioP1;P1;durP2;ratioP2;P2;SDS_P1;SDS_P2;PMS_P1;PMS_P2;Temp;Humidity;BMP_temperature;BMP_pressure;BME280_temperature;BME280_humidity;BME280_pressure;Samples;Min_cycle;Max_cycle;Signal;HPM_P1;HPM_P2
2020/12/29 00:01:34;;;;;;;10.23;4.87;;;3.20;99.90;;;;;;5092850;28;20232;-77
2020/12/29 00:04:01;;;;;;;11.40;5.07;;;3.20;99.90;;;;;;5081242;28;20665;-80
2020/12/29 00:06:27;;;;;;;11.67;4.60;;;3.30;99.90;;;;;;5072250;28;20236;-76
2020/12/29 00:08:54;;;;;;;13.77;4.87;;;3.40;99.90;;;;;;5054910;28;20246;-77
2020/12/29 00:11:20;;;;;;;12.63;4.60;;;3.50;99.90;;;;;;5079062;28;20732;-78
2020/12/29 00:13:48;;;;;;;8.63;4.60;;;3.50;99.90;;;;;;5076776;28;20238;-78
2020/12/29 00:16:14;;;;;;;13.03;4.33;;;3.50;99.90;;;;;;5095213;28;20201;-79
2020/12/29 00:18:40;;;;;;;11.30;4.03;;;3.50;99.90;;;;;;5084640;28;20229;-78
2020/12/29 00:21:07;;;;;;;13.90;3.93;;;3.40;99.90;;;;;;5056315;28;20690;-79
2020/12/29 00:23:33;;;;;;;12.50;4.27;;;3.40;99.90;;;;;;5094912;28;20616;-78
2020/12/29 00:26:00;;;;;;;16.47;3.80;;;3.50;99.90;;;;;;5089812;28;20196;-79
2020/12/29 00:28:26;;;;;;;13.97;4.23;;;3.60;99.90;;;;;;5095035;28;20682;-79
2020/12/29 00:30:53;;;;;;;12.17;4.40;;;3.70;99.90;;;;;;5077432;28;20306;-78
2020/12/29 00:33:20;;;;;;;17.07;4.50;;;3.60;99.90;;;;;;5068001;28;20316;-78
2020/12/29 00:35:46;;;;;;;13.87;5.00;;;3.60;99.90;;;;;;5069248;28;20237;-79
2020/12/29 00:38:12;;;;;;;14.10;4.43;;;3.50;99.90;;;;;;5054723;28;20609;-79
2020/12/29 00:40:39;;;;;;;14.43;5.33;;;3.40;99.90;;;;;;5081838;28;20193;-79
2020/12/29 00:43:05;;;;;;;14.50;4.97;;;3.40;99.90;;;;;;5091239;28;20632;-78
2020/12/29 00:45:32;;;;;;;13.40;4.97;;;3.30;99.90;;;;;;5091056;28;20236;-79
2020/12/29 00:47:59;;;;;;;10.47;4.20;;;3.30;99.90;;;;;;5085531;28;20195;-78
2020/12/29 00:50:25;;;;;;;11.97;4.33;;;3.40;99.90;;;;;;5085295;28;20275;-78
2020/12/29 00:52:52;;;;;;;10.70;4.00;;;3.50;99.90;;;;;;5079264;28;20643;-79
2020/12/29 00:55:18;;;;;;;15.40;4.20;;;3.50;99.90;;;;;;5067799;28;20217;-81
2020/12/29 00:57:45;;;;;;;13.80;4.10;;;3.40;99.90;;;;;;5069482;28;20749;-79
2020/12/29 01:00:11;;;;;;;13.83;4.00;;;3.40;99.90;;;;;;5077774;28;20384;-78
2020/12/29 01:02:38;;;;;;;10.60;4.37;;;3.20;99.90;;;;;;5071747;28;20206;-78
2020/12/29 01:05:05;;;;;;;11.87;3.43;;;3.10;99.90;;;;;;5060582;28;20236;-78
2020/12/29 01:07:31;;;;;;;13.67;3.57;;;3.10;99.90;;;;;;5061283;28;20243;-79
2020/12/29 01:09:58;;;;;;;11.00;3.20;;;3.00;99.90;;;;;;5053641;28;20234;-78
2020/12/29 01:12:24;;;;;;;11.03;3.17;;;3.00;99.90;;;;;;5056613;28;20760;-78
2020/12/29 01:14:50;;;;;;;10.80;3.10;;;3.00;99.90;;;;;;5081975;28;20224;-78
2020/12/29 01:17:17;;;;;;;10.00;3.13;;;2.90;99.90;;;;;;5073745;28;20251;-79
2020/12/29 01:19:43;;;;;;;11.30;3.40;;;2.90;99.90;;;;;;5076988;28;20707;-79
2020/12/29 01:22:10;;;;;;;11.33;3.17;;;2.80;99.90;;;;;;5087368;28;20230;-79
2020/12/29 01:24:37;;;;;;;10.20;2.93;;;2.80;99.90;;;;;;5087996;28;20224;-79
2020/12/29 01:27:03;;;;;;;12.43;2.90;;;2.70;99.90;;;;;;5082038;28;20311;-78
2020/12/29 01:29:29;;;;;;;10.47;2.93;;;2.70;99.90;;;;;;5081826;28;20680;-78
2020/12/29 01:31:58;;;;;;;13.57;3.43;;;2.70;99.90;;;;;;5089865;28;20260;-79
2020/12/29 01:34:25;;;;;;;11.73;3.67;;;2.70;99.90;;;;;;5072591;28;20241;-78
2020/12/29 01:36:51;;;;;;;13.57;3.80;;;2.60;99.90;;;;;;5072035;28;20233;-79
2020/12/29 01:39:19;;;;;;;11.07;3.80;;;2.60;99.90;;;;;;5053389;28;20311;-78
2020/12/29 01:41:46;;;;;;;11.33;3.13;;;2.60;99.90;;;;;;5053684;28;20229;-78
2020/12/29 01:44:14;;;;;;;14.43;3.30;;;2.60;99.90;;;;;;5073101;28;20235;-79
2020/12/29 01:46:42;;;;;;;11.97;3.13;;;2.60;99.90;;;;;;5073084;28;20242;-78
2020/12/29 01:49:09;;;;;;;10.27;3.17;;;2.60;99.90;;;;;;5066816;28;20229;-79
2020/12/29 01:51:36;;;;;;;8.43;3.00;;;2.50;99.90;;;;;;5082016;28;20256;-78
2020/12/29 01:54:02;;;;;;;13.83;3.70;;;2.50;99.90;;;;;;5091807;28;20235;-79
2020/12/29 01:56:33;;;;;;;14.20;3.27;;;2.50;99.90;;;;;;5065960;28;20682;-78
2020/12/29 01:59:00;;;;;;;8.47;3.00;;;2.50;99.90;;;;;;5074187;28;20243;-78
2020/12/29 02:01:26;;;;;;;10.13;2.90;;;2.50;99.90;;;;;;5072166;28;20200;-79
2020/12/29 02:03:53;;;;;;;10.23;2.80;;;2.50;99.90;;;;;;5073287;28;20200;-79
2020/12/29 02:06:20;;;;;;;10.70;3.27;;;2.40;99.90;;;;;;5072661;28;20699;-78
2020/12/29 02:08:49;;;;;;;9.30;3.40;;;2.40;99.90;;;;;;5072844;28;20230;-79
2020/12/29 02:11:15;;;;;;;11.17;4.00;;;2.50;99.90;;;;;;5072887;28;20645;-79
2020/12/29 02:13:43;;;;;;;11.13;4.00;;;2.50;99.90;;;;;;5074203;28;20244;-78
2020/12/29 02:16:10;;;;;;;9.90;4.53;;;2.60;99.90;;;;;;5079283;28;20760;-79
2020/12/29 02:18:37;;;;;;;9.03;2.90;;;2.50;99.90;;;;;;5088984;28;20704;-79
2020/12/29 02:21:03;;;;;;;6.97;2.07;;;2.60;99.90;;;;;;5072951;28;20202;-77
2020/12/29 02:23:31;;;;;;;4.90;1.90;;;2.60;99.90;;;;;;5072456;28;20677;-78
2020/12/29 02:25:57;;;;;;;4.60;2.20;;;2.60;99.90;;;;;;5072590;28;20653;-77
2020/12/29 02:28:23;;;;;;;8.30;2.00;;;2.70;99.90;;;;;;5064112;28;20230;-78
2020/12/29 02:30:51;;;;;;;8.53;2.43;;;2.70;99.90;;;;;;5052376;28;20252;-78
2020/12/29 02:33:17;;;;;;;4.07;2.00;;;2.70;99.90;;;;;;5054640;28;20723;-78
2020/12/29 02:35:43;;;;;;;6.30;1.90;;;2.70;99.90;;;;;;5072433;28;20253;-78
2020/12/29 02:38:10;;;;;;;5.30;1.70;;;2.70;99.90;;;;;;5072326;28;20618;-77
2020/12/29 02:40:37;;;;;;;4.47;1.47;;;2.80;99.90;;;;;;5072082;28;20235;-78
2020/12/29 02:43:03;;;;;;;2.97;1.50;;;2.80;99.90;;;;;;5084183;28;20235;-77
2020/12/29 02:45:30;;;;;;;2.37;1.60;;;2.70;99.90;;;;;;5074572;28;20210;-78
2020/12/29 02:47:56;;;;;;;6.10;1.90;;;2.80;99.90;;;;;;5071217;28;20232;-78
2020/12/29 02:50:23;;;;;;;3.13;1.50;;;2.70;99.90;;;;;;5080540;28;20258;-78
2020/12/29 02:52:49;;;;;;;1.90;1.30;;;2.80;99.90;;;;;;5072443;28;20250;-78
2020/12/29 02:55:15;;;;;;;2.17;1.10;;;2.80;99.90;;;;;;5071960;28;20234;-77
2020/12/29 02:57:43;;;;;;;3.20;1.33;;;2.90;99.90;;;;;;5066686;28;20249;-77
2020/12/29 03:00:09;;;;;;;2.37;1.03;;;3.00;99.90;;;;;;5064010;28;20712;-77
2020/12/29 03:02:35;;;;;;;2.63;0.90;;;3.00;99.90;;;;;;5092029;28;20242;-78
2020/12/29 03:05:02;;;;;;;2.60;0.93;;;3.10;99.90;;;;;;5092648;28;20234;-77
2020/12/29 03:07:28;;;;;;;5.20;1.20;;;3.10;99.90;;;;;;5071597;28;20690;-77
2020/12/29 03:09:55;;;;;;;2.53;1.03;;;3.10;99.90;;;;;;5065415;28;20197;-78
2020/12/29 03:12:21;;;;;;;2.17;1.10;;;3.10;99.90;;;;;;5065050;28;20251;-78
2020/12/29 03:14:49;;;;;;;3.47;1.03;;;3.10;99.90;;;;;;5091142;28;20243;-77
2020/12/29 03:17:15;;;;;;;3.97;0.90;;;3.10;99.90;;;;;;5090500;28;20373;-77
2020/12/29 03:19:41;;;;;;;2.63;1.00;;;3.10;99.90;;;;;;5051860;28;20292;-77
2020/12/29 03:22:08;;;;;;;3.27;1.00;;;3.20;99.90;;;;;;5052342;28;20230;-77
2020/12/29 03:24:34;;;;;;;2.73;1.00;;;3.20;99.90;;;;;;5066387;28;20757;-78
2020/12/29 03:27:01;;;;;;;2.53;1.00;;;3.30;99.90;;;;;;5075010;28;20234;-77
2020/12/29 03:29:27;;;;;;;2.63;1.10;;;3.50;99.90;;;;;;5066731;28;20691;-78
2020/12/29 03:31:54;;;;;;;2.47;0.70;;;3.40;99.90;;;;;;5088528;28;20257;-77
2020/12/29 03:34:23;;;;;;;2.07;0.97;;;3.50;99.90;;;;;;5092464;28;20289;-77
2020/12/29 03:36:50;;;;;;;2.70;1.00;;;3.50;99.90;;;;;;5092094;28;20200;-77
2020/12/29 03:39:16;;;;;;;2.80;0.90;;;3.50;99.90;;;;;;5092329;28;20267;-77
2020/12/29 03:41:43;;;;;;;2.70;0.80;;;3.60;99.90;;;;;;5092277;28;20233;-78
2020/12/29 03:44:09;;;;;;;2.13;0.90;;;3.70;99.90;;;;;;5086789;28;20255;-77
2020/12/29 03:46:36;;;;;;;4.30;1.07;;;3.80;99.90;;;;;;5072097;28;20253;-78
2020/12/29 03:49:03;;;;;;;1.30;0.83;;;3.80;99.90;;;;;;5071694;28;20238;-77
2020/12/29 03:51:30;;;;;;;2.07;0.80;;;3.80;99.90;;;;;;5066572;28;20277;-77
2020/12/29 03:53:56;;;;;;;1.47;0.63;;;3.80;99.90;;;;;;5051940;28;20234;-78
2020/12/29 03:56:23;;;;;;;2.57;0.90;;;3.80;99.90;;;;;;5051969;28;20652;-77
2020/12/29 03:58:49;;;;;;;1.93;0.80;;;3.90;99.90;;;;;;5063723;28;20260;-78
2020/12/29 04:01:16;;;;;;;1.63;1.00;;;3.90;99.90;;;;;;5062451;28;20248;-77
2020/12/29 04:03:43;;;;;;;1.77;0.70;;;3.90;99.90;;;;;;5074758;28;20231;-78
2020/12/29 04:06:11;;;;;;;2.93;0.90;;;3.90;99.90;;;;;;5095827;28;20201;-77
2020/12/29 04:08:38;;;;;;;1.03;0.60;;;3.90;99.90;;;;;;5095837;28;20201;-78
2020/12/29 04:11:04;;;;;;;0.60;0.50;;;3.90;99.90;;;;;;5089117;28;20743;-78
2020/12/29 04:13:31;;;;;;;1.20;0.60;;;3.90;99.90;;;;;;5074060;28;20231;-77
2020/12/29 04:15:58;;;;;;;0.70;0.50;;;4.00;99.90;;;;;;5093799;28;20683;-77
2020/12/29 04:18:24;;;;;;;1.47;0.60;;;4.00;99.90;;;;;;5095527;28;20199;-77
2020/12/29 04:20:51;;;;;;;1.00;0.40;;;4.00;99.90;;;;;;5070113;28;20235;-77
2020/12/29 04:23:18;;;;;;;0.60;0.47;;;4.00;99.90;;;;;;5055105;28;20711;-77
2020/12/29 04:25:44;;;;;;;2.00;0.50;;;4.10;99.90;;;;;;5061342;28;20644;-77
2020/12/29 04:28:11;;;;;;;1.13;0.40;;;4.10;99.90;;;;;;5094694;28;20238;-77
2020/12/29 04:30:37;;;;;;;1.33;0.30;;;4.10;99.90;;;;;;5092482;28;20230;-78
2020/12/29 04:33:04;;;;;;;0.40;0.27;;;4.10;99.90;;;;;;5094800;28;20740;-77
2020/12/29 04:35:30;;;;;;;1.10;0.30;;;4.10;99.90;;;;;;5095043;28;20248;-77
2020/12/29 04:37:56;;;;;;;1.17;0.37;;;4.10;99.90;;;;;;5095216;28;20670;-77
2020/12/29 04:40:24;;;;;;;0.93;0.30;;;4.10;99.90;;;;;;5086547;28;20241;-77
2020/12/29 04:42:52;;;;;;;0.70;0.20;;;4.10;99.90;;;;;;5074341;28;20230;-77
2020/12/29 04:45:20;;;;;;;2.20;0.53;;;4.20;99.90;;;;;;5071774;28;20241;-78
2020/12/29 04:47:46;;;;;;;1.70;0.40;;;4.20;99.90;;;;;;5075939;28;20222;-77
2020/12/29 04:50:14;;;;;;;1.93;0.40;;;4.20;99.90;;;;;;5053965;28;20786;-77
2020/12/29 04:52:44;;;;;;;1.73;0.50;;;4.20;99.90;;;;;;5054590;28;20234;-77
2020/12/29 04:55:11;;;;;;;1.53;0.60;;;4.20;99.90;;;;;;5054468;28;20295;-78
2020/12/29 04:57:43;;;;;;;1.80;0.50;;;4.20;99.90;;;;;;5061809;28;20250;-77
2020/12/29 05:00:10;;;;;;;1.07;0.60;;;4.20;99.90;;;;;;5073528;28;20199;-77
2020/12/29 05:02:36;;;;;;;1.23;0.40;;;4.20;99.90;;;;;;5077648;28;20629;-77
2020/12/29 05:05:03;;;;;;;1.50;0.40;;;4.20;99.90;;;;;;5094689;28;20238;-78
2020/12/29 05:07:31;;;;;;;2.23;0.63;;;4.10;99.90;;;;;;5094335;28;20735;-77
2020/12/29 05:10:05;;;;;;;2.23;0.40;;;4.10;99.90;;;;;;5094291;28;20198;-78
2020/12/29 05:12:32;;;;;;;1.30;0.50;;;4.10;99.90;;;;;;5094342;28;20275;-77
2020/12/29 05:14:59;;;;;;;1.63;0.60;;;4.00;99.90;;;;;;5089878;28;20245;-77
2020/12/29 05:17:26;;;;;;;1.10;0.60;;;4.00;99.90;;;;;;5073478;28;20233;-78
2020/12/29 05:19:53;;;;;;;1.47;0.47;;;4.00;99.90;;;;;;5089326;28;20229;-77
2020/12/29 05:22:21;;;;;;;0.90;0.43;;;3.90;99.90;;;;;;5082639;28;20225;-78
2020/12/29 05:24:48;;;;;;;1.30;0.50;;;3.90;99.90;;;;;;5093696;28;20746;-77
2020/12/29 05:27:14;;;;;;;1.30;0.50;;;3.90;99.90;;;;;;5094029;28;20233;-77
2020/12/29 05:29:41;;;;;;;1.23;0.40;;;3.80;99.90;;;;;;5084857;28;20206;-77
2020/12/29 05:32:16;;;;;;;1.60;0.50;;;3.80;99.90;;;;;;5084961;28;20253;-77
2020/12/29 05:34:43;;;;;;;1.77;0.40;;;3.80;99.90;;;;;;5093160;28;20251;-77
2020/12/29 05:37:15;;;;;;;1.70;0.47;;;3.80;99.90;;;;;;5092834;28;20221;-77
2020/12/29 05:39:42;;;;;;;1.53;0.50;;;3.80;99.90;;;;;;5093392;28;20205;-77
2020/12/29 05:42:08;;;;;;;1.23;0.43;;;3.90;99.90;;;;;;5093842;28;20229;-77
2020/12/29 05:44:36;;;;;;;2.00;0.40;;;3.80;99.90;;;;;;5084088;28;20245;-77
2020/12/29 05:47:04;;;;;;;2.43;0.70;;;3.80;99.90;;;;;;5073680;28;20238;-77
2020/12/29 05:49:32;;;;;;;2.27;0.60;;;3.90;99.90;;;;;;5064156;28;20234;-77
2020/12/29 05:51:59;;;;;;;1.03;0.50;;;3.90;99.90;;;;;;5073332;28;20218;-77
2020/12/29 05:54:27;;;;;;;2.73;0.70;;;3.90;99.90;;;;;;5073102;28;20223;-77
2020/12/29 05:56:54;;;;;;;2.50;0.70;;;3.90;99.90;;;;;;5073320;28;20309;-77
2020/12/29 05:59:21;;;;;;;2.20;0.70;;;4.00;99.90;;;;;;5071645;28;20252;-78
2020/12/29 06:01:50;;;;;;;1.50;0.43;;;4.00;99.90;;;;;;5073045;28;20631;-77
2020/12/29 06:04:17;;;;;;;2.53;0.70;;;4.00;99.90;;;;;;5082701;28;20199;-78
2020/12/29 06:06:47;;;;;;;2.87;0.80;;;4.00;99.90;;;;;;5072763;28;20238;-77
2020/12/29 06:09:15;;;;;;;3.03;0.70;;;4.10;99.90;;;;;;5072863;28;20238;-77
2020/12/29 06:11:54;;;;;;;1.07;0.67;;;4.10;99.90;;;;;;5082992;28;20244;-78
2020/12/29 06:14:24;;;;;;;1.83;0.83;;;4.10;99.90;;;;;;5092639;28;20237;-77
2020/12/29 06:16:52;;;;;;;1.77;0.50;;;4.10;99.90;;;;;;5052832;28;20218;-77
2020/12/29 06:19:23;;;;;;;1.73;0.60;;;4.10;99.90;;;;;;5058943;28;20241;-77
2020/12/29 06:22:04;;;;;;;2.93;0.70;;;4.00;99.90;;;;;;5072271;28;20582;-77
2020/12/29 06:24:31;;;;;;;1.13;0.63;;;4.10;99.90;;;;;;5072424;28;20615;-77
2020/12/29 06:27:00;;;;;;;2.70;0.70;;;4.10;99.90;;;;;;5072182;28;20230;-77
2020/12/29 06:29:31;;;;;;;3.30;0.60;;;4.00;99.90;;;;;;5052631;28;20209;-77
2020/12/29 06:32:02;;;;;;;1.77;0.80;;;4.00;99.90;;;;;;5057944;28;20273;-77
2020/12/29 06:34:30;;;;;;;3.20;1.23;;;4.10;99.90;;;;;;5072520;28;20288;-77
2020/12/29 06:37:05;;;;;;;2.97;1.30;;;4.10;99.90;;;;;;5076057;28;20198;-77
2020/12/29 06:39:32;;;;;;;3.17;1.47;;;4.10;99.90;;;;;;5092559;28;20237;-77
2020/12/29 06:41:59;;;;;;;4.60;1.00;;;4.10;99.90;;;;;;5075582;28;20223;-77
2020/12/29 06:44:25;;;;;;;2.93;0.93;;;4.10;99.90;;;;;;5075209;28;20233;-77
2020/12/29 06:46:56;;;;;;;3.40;1.10;;;4.20;99.90;;;;;;5082990;28;20604;-77
2020/12/29 06:49:23;;;;;;;2.47;1.00;;;4.20;99.90;;;;;;5090833;28;20217;-78
2020/12/29 06:52:28;;;;;;;4.80;1.00;;;4.20;99.90;;;;;;5091979;28;20318;-77
2020/12/29 06:54:56;;;;;;;2.27;0.87;;;4.20;99.90;;;;;;5061948;28;20640;-77
2020/12/29 06:57:24;;;;;;;2.70;0.93;;;4.20;99.90;;;;;;5068151;28;20210;-76
2020/12/29 06:59:50;;;;;;;3.37;0.87;;;4.20;99.90;;;;;;5092967;28;20206;-75
2020/12/29 07:02:19;;;;;;;1.80;1.10;;;4.20;99.90;;;;;;5092708;28;20229;-75
2020/12/29 07:04:54;;;;;;;2.10;0.93;;;4.20;99.90;;;;;;5081837;28;20231;-75
2020/12/29 07:07:29;;;;;;;2.70;0.80;;;4.20;99.90;;;;;;5072161;28;20234;-75
2020/12/29 07:10:11;;;;;;;2.67;0.97;;;4.20;99.90;;;;;;5073801;28;20198;-75
2020/12/29 07:12:43;;;;;;;2.00;1.10;;;4.20;99.90;;;;;;5075948;28;20709;-75
2020/12/29 07:15:13;;;;;;;4.07;1.47;;;4.20;99.90;;;;;;5072323;28;20673;-76
2020/12/29 07:17:39;;;;;;;5.50;4.07;;;4.20;99.90;;;;;;5070813;28;20281;-76
2020/12/29 07:20:17;;;;;;;8.77;6.10;;;4.20;99.90;;;;;;5078244;28;20253;-76
2020/12/29 07:22:54;;;;;;;7.50;4.87;;;4.20;99.90;;;;;;5077796;28;20249;-75
2020/12/29 07:25:23;;;;;;;8.43;3.80;;;4.20;99.90;;;;;;5072510;28;20913;-75
2020/12/29 07:27:50;;;;;;;6.33;4.53;;;4.20;99.90;;;;;;5086328;28;20290;-75
2020/12/29 07:30:17;;;;;;;9.47;6.37;;;4.20;99.90;;;;;;5073312;28;20203;-75
2020/12/29 07:32:43;;;;;;;10.30;6.60;;;4.20;99.90;;;;;;5083358;28;20718;-75
2020/12/29 07:35:10;;;;;;;11.00;6.20;;;4.20;99.90;;;;;;5083251;28;20297;-75
2020/12/29 07:37:40;;;;;;;9.47;6.20;;;4.20;99.90;;;;;;5063251;28;20618;-75
2020/12/29 07:40:08;;;;;;;9.60;5.53;;;4.20;99.90;;;;;;5085986;28;20203;-75
2020/12/29 07:42:34;;;;;;;9.40;6.00;;;4.20;99.90;;;;;;5094594;28;20222;-77
2020/12/29 07:45:00;;;;;;;8.97;6.00;;;4.20;99.90;;;;;;5077613;28;20669;-75
2020/12/29 07:47:27;;;;;;;9.10;5.70;;;4.10;99.90;;;;;;5088276;28;20207;-76
2020/12/29 07:49:53;;;;;;;7.07;4.97;;;4.10;99.90;;;;;;5078102;28;20329;-75
2020/12/29 07:52:23;;;;;;;7.13;5.50;;;4.10;99.90;;;;;;5079803;28;20378;-75
2020/12/29 07:55:09;;;;;;;9.30;5.13;;;4.10;99.90;;;;;;5095908;28;20247;-78
2020/12/29 07:57:36;;;;;;;9.03;5.90;;;4.10;99.90;;;;;;5090960;28;20712;-77
2020/12/29 08:00:13;;;;;;;8.23;5.57;;;4.10;99.90;;;;;;5083353;28;20236;-77
2020/12/29 08:02:40;;;;;;;13.43;6.13;;;4.10;99.90;;;;;;5077001;28;20211;-77
2020/12/29 08:05:07;;;;;;;8.77;6.00;;;4.10;99.90;;;;;;5083093;28;20728;-77
2020/12/29 08:07:34;;;;;;;8.00;4.60;;;4.10;99.90;;;;;;5091418;28;20203;-77
2020/12/29 08:10:01;;;;;;;10.57;5.23;;;4.10;99.90;;;;;;5078020;28;20624;-77
2020/12/29 08:12:28;;;;;;;11.93;5.20;;;4.10;99.90;;;;;;5075068;28;20698;-77
2020/12/29 08:14:54;;;;;;;9.90;4.97;;;4.00;99.90;;;;;;5080910;28;20226;-77
2020/12/29 08:17:21;;;;;;;7.30;4.33;;;3.90;99.90;;;;;;5083431;28;20197;-76
2020/12/29 08:19:58;;;;;;;5.97;4.20;;;3.90;99.90;;;;;;5081119;28;20674;-76
2020/12/29 08:22:28;;;;;;;6.47;4.37;;;3.90;99.90;;;;;;5089686;28;20201;-77
2020/12/29 08:24:54;;;;;;;5.20;3.50;;;4.00;99.90;;;;;;5066839;28;20236;-76
2020/12/29 08:27:21;;;;;;;6.33;3.47;;;4.10;99.90;;;;;;5087382;28;20570;-77
2020/12/29 08:29:48;;;;;;;8.43;3.80;;;4.10;99.90;;;;;;5079560;28;20282;-77
2020/12/29 08:32:18;;;;;;;7.67;3.40;;;4.20;99.90;;;;;;5082244;28;20222;-77
2020/12/29 08:34:47;;;;;;;5.67;3.13;;;4.60;99.90;;;;;;5082218;28;20296;-77
2020/12/29 08:37:18;;;;;;;4.47;2.93;;;5.10;99.90;;;;;;5087113;28;20732;-77
2020/12/29 08:40:08;;;;;;;5.73;3.00;;;5.60;99.90;;;;;;5062043;28;20622;-77
2020/12/29 08:42:36;;;;;;;3.63;2.37;;;6.00;99.90;;;;;;5074587;28;20202;-77
2020/12/29 08:45:07;;;;;;;3.97;2.50;;;5.80;99.90;;;;;;5088047;28;20766;-77
2020/12/29 08:47:34;;;;;;;4.67;2.37;;;5.40;99.90;;;;;;5078380;28;20291;-77
2020/12/29 08:50:26;;;;;;;4.07;2.40;;;4.90;99.90;;;;;;5079116;28;20233;-77
2020/12/29 08:52:54;;;;;;;4.00;2.23;;;4.90;99.90;;;;;;5086035;28;20626;-77
2020/12/29 08:55:28;;;;;;;5.70;2.60;;;5.40;99.90;;;;;;5091016;28;20205;-76
2020/12/29 08:57:56;;;;;;;6.03;3.63;;;5.40;99.90;;;;;;5075300;28;20250;-76
2020/12/29 09:00:24;;;;;;;7.20;5.70;;;5.80;99.90;;;;;;5073390;28;20201;-77
2020/12/29 09:02:51;;;;;;;9.03;7.10;;;5.50;99.90;;;;;;5076187;28;20248;-76
2020/12/29 09:05:21;;;;;;;6.97;6.23;;;5.40;99.90;;;;;;5086051;28;20360;-77
2020/12/29 09:07:48;;;;;;;9.73;6.97;;;5.10;99.90;;;;;;5074126;28;20238;-77
2020/12/29 09:10:16;;;;;;;9.33;8.00;;;5.10;99.90;;;;;;5081997;28;20286;-78
2020/12/29 09:12:43;;;;;;;9.90;8.37;;;5.30;99.90;;;;;;5077160;28;20221;-78
2020/12/29 09:15:10;;;;;;;9.47;7.67;;;5.30;99.90;;;;;;5085766;28;20193;-78
2020/12/29 09:17:40;;;;;;;10.13;6.87;;;5.20;99.90;;;;;;5078752;28;20231;-77
2020/12/29 09:20:15;;;;;;;9.60;6.00;;;5.10;99.90;;;;;;5077392;28;20196;-77
2020/12/29 09:23:02;;;;;;;10.40;5.27;;;5.00;99.90;;;;;;5080989;28;20223;-77
2020/12/29 09:25:34;;;;;;;8.67;4.53;;;5.00;99.90;;;;;;5073357;28;20573;-78
2020/12/29 09:28:08;;;;;;;9.20;4.87;;;5.10;99.90;;;;;;5083216;28;20244;-78
2020/12/29 09:30:34;;;;;;;10.17;4.33;;;6.30;99.90;;;;;;5074844;28;20285;-78
2020/12/29 09:33:02;;;;;;;14.10;5.27;;;7.30;99.90;;;;;;5093370;28;20710;-78
2020/12/29 09:35:28;;;;;;;238.50;11.20;;;8.10;99.90;;;;;;5085347;28;20234;-78
2020/12/29 09:37:56;;;;;;;4.37;2.90;;;8.80;99.90;;;;;;5091348;28;20233;-78
2020/12/29 09:40:23;;;;;;;3.20;2.33;;;9.10;99.90;;;;;;5092909;28;20229;-78
2020/12/29 09:42:50;;;;;;;5.67;2.77;;;8.20;99.90;;;;;;5082353;28;20755;-77
2020/12/29 09:45:17;;;;;;;4.47;2.20;;;7.80;99.90;;;;;;5076161;28;20680;-78
2020/12/29 09:47:44;;;;;;;4.93;2.40;;;7.30;99.90;;;;;;5090078;28;20208;-78
2020/12/29 09:50:11;;;;;;;6.27;3.07;;;7.00;99.90;;;;;;5077935;28;20233;-77
2020/12/29 09:52:38;;;;;;;4.77;1.67;;;6.60;99.90;;;;;;5086164;28;20253;-77
2020/12/29 09:55:05;;;;;;;5.53;2.30;;;6.40;99.90;;;;;;5078588;28;20230;-77
2020/12/29 09:57:31;;;;;;;6.33;2.40;;;6.20;99.90;;;;;;5087218;28;20695;-77
2020/12/29 09:59:58;;;;;;;5.03;2.40;;;6.00;99.90;;;;;;5077442;28;20234;-77
2020/12/29 10:02:25;;;;;;;4.30;2.40;;;5.90;99.90;;;;;;5079664;28;20667;-77
2020/12/29 10:04:51;;;;;;;4.30;2.50;;;6.10;99.90;;;;;;5080615;28;20633;-77
2020/12/29 10:07:19;;;;;;;5.63;2.53;;;6.60;99.90;;;;;;5084874;28;20230;-77
2020/12/29 10:09:45;;;;;;;6.60;3.03;;;7.50;99.90;;;;;;5082128;28;20284;-77
2020/12/29 10:12:12;;;;;;;6.97;3.50;;;8.00;99.90;;;;;;5084920;28;20247;-76
2020/12/29 10:14:38;;;;;;;6.07;3.20;;;8.30;99.90;;;;;;5085299;28;20235;-76
2020/12/29 10:17:05;;;;;;;5.13;2.50;;;8.30;99.90;;;;;;5075385;28;20243;-77
2020/12/29 10:19:32;;;;;;;6.33;3.17;;;8.60;99.90;;;;;;5071315;28;20281;-77
2020/12/29 10:21:58;;;;;;;6.90;3.10;;;9.00;99.90;;;;;;5085763;28;20875;-76
2020/12/29 10:24:27;;;;;;;5.90;2.57;;;9.40;99.90;;;;;;5088379;28;20761;-78
2020/12/29 10:26:54;;;;;;;3.50;2.00;;;10.20;99.90;;;;;;5077908;28;20209;-80
2020/12/29 10:29:21;;;;;;;3.53;2.20;;;10.00;99.90;;;;;;5078037;28;20615;-77
2020/12/29 10:31:48;;;;;;;6.47;2.10;;;10.20;99.90;;;;;;5085049;28;20298;-76
2020/12/29 10:34:15;;;;;;;5.87;2.83;;;9.90;99.90;;;;;;5081019;28;20238;-77
2020/12/29 10:36:42;;;;;;;5.10;2.40;;;9.60;99.90;;;;;;5075885;28;20564;-78
2020/12/29 10:39:09;;;;;;;6.50;2.37;;;9.60;99.90;;;;;;5088868;28;20281;-77
2020/12/29 10:41:38;;;;;;;4.97;2.40;;;9.50;99.90;;;;;;5083297;28;20285;-77
2020/12/29 10:44:06;;;;;;;5.07;2.80;;;9.20;99.90;;;;;;5074491;28;20285;-76
2020/12/29 10:46:33;;;;;;;7.53;3.57;;;8.80;99.90;;;;;;5084172;28;20237;-78
2020/12/29 10:48:59;;;;;;;7.27;3.77;;;8.50;99.90;;;;;;5078054;28;20201;-77
2020/12/29 10:51:26;;;;;;;9.70;5.40;;;8.20;99.90;;;;;;5082758;28;20309;-78
2020/12/29 10:53:54;;;;;;;8.87;5.23;;;8.10;99.90;;;;;;5080848;28;20588;-79
2020/12/29 10:56:20;;;;;;;6.70;2.90;;;8.00;99.90;;;;;;5067656;28;20229;-78
2020/12/29 10:58:48;;;;;;;5.90;2.70;;;7.90;99.90;;;;;;5081100;28;20638;-78
2020/12/29 11:01:20;;;;;;;5.43;2.33;;;8.90;99.90;;;;;;5060855;28;20256;-78
2020/12/29 11:03:47;;;;;;;5.90;2.07;;;9.40;99.90;;;;;;5067190;28;20234;-78
2020/12/29 11:06:15;;;;;;;7.80;2.40;;;9.60;99.90;;;;;;5081811;28;20249;-79
2020/12/29 11:08:42;;;;;;;5.97;1.90;;;10.00;99.90;;;;;;5077413;28;20235;-78
2020/12/29 11:11:08;;;;;;;7.37;3.40;;;9.70;99.90;;;;;;5078503;28;20282;-79
2020/12/29 11:13:35;;;;;;;6.53;2.53;;;9.80;99.90;;;;;;5084346;28;20768;-77
2020/12/29 11:16:02;;;;;;;6.60;1.97;;;10.20;99.90;;;;;;5088215;28;20198;-78
2020/12/29 11:18:29;;;;;;;6.80;2.40;;;10.30;99.90;;;;;;5080051;28;20248;-78
2020/12/29 11:20:56;;;;;;;4.90;2.10;;;10.50;99.90;;;;;;5076423;28;20230;-78
2020/12/29 11:23:22;;;;;;;6.90;2.07;;;10.50;99.90;;;;;;5083535;28;20642;-78
2020/12/29 11:25:49;;;;;;;4.87;2.03;;;9.90;99.90;;;;;;5084131;28;20684;-78
2020/12/29 11:28:15;;;;;;;5.13;1.50;;;9.50;99.90;;;;;;5080480;28;20226;-78
2020/12/29 11:30:43;;;;;;;7.23;2.17;;;9.00;99.90;;;;;;5080316;28;20237;-78
2020/12/29 11:33:10;;;;;;;6.67;2.37;;;8.70;99.90;;;;;;5071975;28;20304;-78
2020/12/29 11:35:37;;;;;;;5.70;1.87;;;9.30;99.90;;;;;;5075263;28;20286;-78
2020/12/29 11:38:03;;;;;;;4.03;1.60;;;10.30;99.90;;;;;;5080360;28;20764;-80
2020/12/29 11:40:29;;;;;;;5.03;1.67;;;11.00;99.90;;;;;;5074649;28;20227;-79
2020/12/29 11:42:56;;;;;;;3.60;1.93;;;10.90;99.90;;;;;;5076647;28;20737;-79
2020/12/29 11:45:22;;;;;;;6.50;1.80;;;10.50;99.90;;;;;;5073591;28;20223;-78
2020/12/29 11:47:49;;;;;;;6.23;2.00;;;9.90;99.90;;;;;;5073380;28;20686;-77
2020/12/29 11:50:16;;;;;;;4.43;1.70;;;9.30;99.90;;;;;;5078704;28;20258;-77
2020/12/29 11:52:43;;;;;;;4.90;2.17;;;9.10;99.90;;;;;;5075568;28;20659;-77
2020/12/29 11:55:10;;;;;;;4.70;2.30;;;9.60;99.90;;;;;;5078992;28;20203;-77
2020/12/29 11:57:37;;;;;;;21.77;13.80;;;10.10;99.90;;;;;;5075144;28;20697;-78
2020/12/29 12:00:07;;;;;;;10.10;7.03;;;10.60;99.90;;;;;;5084943;28;20234;-78
2020/12/29 12:02:33;;;;;;;15.67;13.33;;;10.40;99.90;;;;;;5081381;28;20676;-77
2020/12/29 12:05:00;;;;;;;4.43;1.90;;;10.40;99.90;;;;;;5073402;28;20226;-77
2020/12/29 12:07:27;;;;;;;4.67;1.60;;;10.50;99.90;;;;;;5084397;28;20226;-77
2020/12/29 12:09:53;;;;;;;6.13;2.90;;;10.20;99.90;;;;;;5084865;28;20234;-78
2020/12/29 12:12:20;;;;;;;3.10;1.37;;;9.90;99.90;;;;;;5094705;28;20305;-78
2020/12/29 12:14:47;;;;;;;5.80;1.70;;;9.60;99.90;;;;;;5091042;28;20277;-78
2020/12/29 12:17:13;;;;;;;3.73;1.63;;;9.30;99.90;;;;;;5094164;28;20300;-78
2020/12/29 12:19:39;;;;;;;4.87;1.43;;;9.20;99.90;;;;;;5089209;28;20281;-79
2020/12/29 12:22:06;;;;;;;3.93;1.50;;;9.00;99.90;;;;;;5076577;28;20256;-79
2020/12/29 12:24:33;;;;;;;4.60;1.60;;;8.90;99.90;;;;;;5087485;28;20227;-79
2020/12/29 12:27:00;;;;;;;4.43;1.67;;;8.40;99.90;;;;;;5085379;28;20230;-78
2020/12/29 12:29:26;;;;;;;3.70;1.37;;;8.40;99.90;;;;;;5075029;28;20235;-79
2020/12/29 12:31:52;;;;;;;2.20;1.27;;;8.30;99.90;;;;;;5071326;28;20259;-79
2020/12/29 12:34:19;;;;;;;4.97;1.57;;;8.90;99.90;;;;;;5079032;28;20736;-78
2020/12/29 12:36:45;;;;;;;4.77;1.40;;;9.70;99.90;;;;;;5079226;28;20235;-79
2020/12/29 12:39:12;;;;;;;2.93;1.20;;;10.50;99.90;;;;;;5073936;28;20343;-80
2020/12/29 12:41:44;;;;;;;3.17;1.10;;;10.60;99.90;;;;;;5077671;28;20217;-80
2020/12/29 12:44:10;;;;;;;4.27;1.30;;;10.20;99.90;;;;;;5082531;28;20194;-79
2020/12/29 12:46:39;;;;;;;4.07;1.30;;;10.10;99.90;;;;;;5074786;28;20680;-79
2020/12/29 12:49:06;;;;;;;4.03;1.30;;;10.20;99.90;;;;;;5076068;28;20223;-79
2020/12/29 12:51:33;;;;;;;5.70;1.10;;;9.60;99.90;;;;;;5085197;28;20731;-79
2020/12/29 12:53:59;;;;;;;5.37;1.30;;;9.70;99.90;;;;;;5087297;28;20272;-79
2020/12/29 12:56:28;;;;;;;2.37;1.00;;;9.50;99.90;;;;;;5088133;28;20233;-79